Time;durP1;ratioP1;P1;durP2;ratioP2;P2;SDS_P1;SDS_P2;PMS_P1;PMS_P2;Temp;Humidity;BMP_temperature;BMP_pressure;BME280_temperature;BME280_humidity;BME280_pressure;Samples;Min_cycle;Max_cycle;Signal;HPM_P1;HPM_P2
2022/01/16 00:00:21;;;;;;;67.77;29.03;;;3.10;99.90;;;;;;6156988;23;20028;-90
2022/01/16 00:05:20;;;;;;;73.47;28.33;;;3.00;99.90;;;;;;6156721;23;20104;-94
2022/01/16 00:07:47;;;;;;;69.70;28.48;;;3.00;99.90;;;;;;6155070;23;20056;-87
2022/01/16 00:10:13;;;;;;;70.30;28.55;;;3.00;99.90;;;;;;6155489;23;20017;-93
2022/01/16 00:12:38;;;;;;;61.47;27.77;;;2.90;99.90;;;;;;6155544;23;20080;-92
2022/01/16 00:15:05;;;;;;;55.87;25.03;;;2.90;99.90;;;;;;6156937;23;20018;-93
2022/01/16 00:17:35;;;;;;;58.40;25.48;;;2.90;99.90;;;;;;6156735;23;20025;-92
2022/01/16 00:20:01;;;;;;;55.30;26.15;;;2.80;99.90;;;;;;6155504;23;20028;-92
2022/01/16 00:22:32;;;;;;;53.57;24.40;;;2.80;99.90;;;;;;6155188;23;20041;-91
2022/01/16 00:25:02;;;;;;;49.72;23.92;;;2.80;99.90;;;;;;6157106;23;20013;-94
2022/01/16 00:27:27;;;;;;;52.50;24.08;;;2.70;99.90;;;;;;6155442;23;20101;-94
2022/01/16 00:29:53;;;;;;;57.08;25.15;;;2.70;99.90;;;;;;6155447;23;20045;-94
2022/01/16 00:32:19;;;;;;;56.07;24.03;;;2.70;99.90;;;;;;6157550;23;20022;-92
2022/01/16 00:34:57;;;;;;;53.67;24.60;;;2.60;99.90;;;;;;6159720;23;20022;-88
2022/01/16 00:37:22;;;;;;;54.22;25.42;;;2.60;99.90;;;;;;6169010;23;20018;-92
2022/01/16 00:39:48;;;;;;;60.53;24.75;;;2.50;99.90;;;;;;6164007;23;20029;-89
2022/01/16 00:42:14;;;;;;;63.53;26.47;;;2.50;99.90;;;;;;6108600;23;20046;-89
2022/01/16 00:44:39;;;;;;;55.50;25.60;;;2.50;99.90;;;;;;6126713;23;20001;-91
2022/01/16 00:47:17;;;;;;;61.50;25.67;;;2.50;99.90;;;;;;6115932;23;20048;-93
2022/01/16 00:50:02;;;;;;;62.28;26.40;;;2.50;99.90;;;;;;6102376;23;20080;-91
2022/01/16 00:52:28;;;;;;;54.53;24.65;;;2.60;99.90;;;;;;6077195;23;20021;-90
2022/01/16 00:54:55;;;;;;;50.77;24.03;;;2.60;99.90;;;;;;6100741;23;20053;-87
2022/01/16 00:57:20;;;;;;;56.45;25.20;;;2.60;99.90;;;;;;6100634;23;20057;-88
2022/01/16 00:59:48;;;;;;;58.33;26.73;;;2.60;99.90;;;;;;6076750;23;20017;-89
2022/01/16 01:02:13;;;;;;;51.28;24.88;;;2.60;99.90;;;;;;6100889;23;20025;-89
2022/01/16 01:04:41;;;;;;;62.08;25.80;;;2.50;99.90;;;;;;6077002;23;20021;-86
2022/01/16 01:07:07;;;;;;;57.08;25.80;;;2.50;99.90;;;;;;6100669;23;20018;-90
2022/01/16 01:09:33;;;;;;;59.13;25.25;;;2.50;99.90;;;;;;6126501;23;20032;-85
2022/01/16 01:11:58;;;;;;;60.73;26.70;;;2.50;99.90;;;;;;6076651;23;20018;-90
2022/01/16 01:14:27;;;;;;;51.97;25.20;;;2.50;99.90;;;;;;6100606;23;20049;-86
2022/01/16 01:17:00;;;;;;;56.40;26.10;;;2.50;99.90;;;;;;6126626;23;20018;-89
2022/01/16 01:19:32;;;;;;;58.05;26.60;;;2.50;99.90;;;;;;6076732;23;20037;-85
2022/01/16 01:21:58;;;;;;;58.17;25.73;;;2.50;99.90;;;;;;6100489;23;20050;-86
2022/01/16 01:24:25;;;;;;;59.20;25.60;;;2.40;99.90;;;;;;6100907;23;20024;-85
2022/01/16 01:26:58;;;;;;;61.97;26.33;;;2.40;99.90;;;;;;6126804;23;20336;-86
2022/01/16 01:29:28;;;;;;;65.93;27.65;;;2.40;99.90;;;;;;6126606;23;20022;-91
2022/01/16 01:31:53;;;;;;;63.92;28.95;;;2.40;99.90;;;;;;6076938;23;20018;-89
2022/01/16 01:34:19;;;;;;;75.88;29.80;;;2.40;99.90;;;;;;6126705;23;20080;-87
2022/01/16 01:36:48;;;;;;;71.50;30.90;;;2.40;99.90;;;;;;6077391;23;20101;-91
2022/01/16 01:39:19;;;;;;;75.38;30.60;;;2.40;99.90;;;;;;6126777;23;20022;-89
2022/01/16 01:41:46;;;;;;;76.00;30.92;;;2.40;99.90;;;;;;6126759;23;20511;-91
2022/01/16 01:52:25;;;;;;;78.55;32.95;;;2.40;99.90;;;;;;6126302;23;20022;-87
2022/01/16 01:54:51;;;;;;;86.57;34.70;;;2.40;99.90;;;;;;6100695;23;20036;-89
2022/01/16 01:57:17;;;;;;;75.68;33.63;;;2.40;99.90;;;;;;6127491;23;20025;-90
2022/01/16 01:59:43;;;;;;;78.60;35.50;;;2.40;99.90;;;;;;6102403;23;20054;-90
2022/01/16 02:04:44;;;;;;;74.90;34.22;;;2.40;99.90;;;;;;6155456;23;20085;-89
2022/01/16 02:07:10;;;;;;;77.25;33.35;;;2.30;99.90;;;;;;6132178;23;20026;-88
2022/01/16 02:09:37;;;;;;;74.07;33.92;;;2.30;99.90;;;;;;6131770;23;20018;-88
2022/01/16 02:12:03;;;;;;;;;;;2.40;99.90;;;;;;6131994;23;20023;-89
2022/01/16 02:14:34;;;;;;;79.30;33.75;;;2.40;99.90;;;;;;6131183;23;19951;-88
2022/01/16 02:36:28;;;;;;;74.82;32.40;;;2.60;99.90;;;;;;6157563;23;20017;-90
2022/01/16 02:39:12;;;;;;;79.90;32.05;;;2.70;99.90;;;;;;6131329;23;20108;-88
2022/01/16 02:41:45;;;;;;;76.97;33.53;;;2.70;99.90;;;;;;6131196;23;20443;-87
2022/01/16 02:44:31;;;;;;;79.22;34.17;;;2.70;99.90;;;;;;6131274;23;20022;-88
2022/01/16 02:47:19;;;;;;;83.47;34.30;;;2.70;99.90;;;;;;6131108;23;20021;-88
2022/01/16 02:49:48;;;;;;;83.47;34.47;;;2.70;99.90;;;;;;6131274;23;20021;-90
2022/01/16 02:52:19;;;;;;;86.05;34.25;;;2.70;99.90;;;;;;6131764;23;20068;-89
2022/01/16 02:54:48;;;;;;;82.70;33.55;;;2.70;99.90;;;;;;6131354;23;20021;-90
2022/01/16 02:57:19;;;;;;;82.18;34.35;;;2.70;99.90;;;;;;6130683;23;20148;-90
2022/01/16 02:59:48;;;;;;;81.78;33.45;;;2.70;99.90;;;;;;6129697;23;20017;-89
2022/01/16 03:02:37;;;;;;;81.10;34.03;;;2.70;99.90;;;;;;6129523;23;20451;-89
2022/01/16 03:05:33;;;;;;;83.63;33.10;;;2.70;99.90;;;;;;6095981;23;20176;-87
2022/01/16 03:07:59;;;;;;;97.05;34.85;;;2.70;99.90;;;;;;6098910;23;20049;-86
2022/01/16 03:12:53;;;;;;;88.40;34.97;;;2.60;99.90;;;;;;6099195;23;20021;-87
2022/01/16 03:15:20;;;;;;;86.00;34.25;;;2.60;99.90;;;;;;6099140;23;20018;-86
2022/01/16 03:23:23;;;;;;;83.22;33.75;;;2.50;99.90;;;;;;6099251;23;20029;-87
2022/01/16 03:25:50;;;;;;;93.13;35.75;;;2.50;99.90;;;;;;6099114;23;20053;-88
2022/01/16 03:28:16;;;;;;;;;;;2.60;99.90;;;;;;6099670;23;20400;-86
2022/01/16 03:30:42;;;;;;;91.80;33.72;;;2.60;99.90;;;;;;6099204;23;19917;-87
2022/01/16 03:33:09;;;;;;;88.73;34.07;;;2.60;99.90;;;;;;6098997;23;20048;-87
2022/01/16 03:35:34;;;;;;;90.93;33.38;;;2.60;99.90;;;;;;6098962;23;20014;-87
2022/01/16 03:38:01;;;;;;;86.30;32.87;;;2.60;99.90;;;;;;6099020;23;20041;-87
2022/01/16 03:40:27;;;;;;;84.97;33.00;;;2.60;99.90;;;;;;6100514;23;20018;-86
2022/01/16 03:42:53;;;;;;;80.97;32.40;;;2.50;99.90;;;;;;6101231;23;20455;-87
2022/01/16 03:45:19;;;;;;;95.43;34.80;;;2.60;99.90;;;;;;6101257;23;20032;-87
2022/01/16 03:47:44;;;;;;;90.87;34.13;;;2.60;99.90;;;;;;6077218;23;20538;-88
2022/01/16 03:50:10;;;;;;;95.73;35.03;;;2.60;99.90;;;;;;6101281;23;20096;-86
2022/01/16 03:52:37;;;;;;;92.70;35.03;;;2.60;99.90;;;;;;6101251;23;20030;-87
2022/01/16 03:55:04;;;;;;;89.10;33.28;;;2.60;99.90;;;;;;6126770;23;20014;-86
2022/01/16 03:57:30;;;;;;;86.07;34.85;;;2.70;99.90;;;;;;6100843;23;20440;-88
2022/01/16 03:59:56;;;;;;;87.20;33.38;;;2.70;99.90;;;;;;6127151;23;20101;-87
2022/01/16 04:02:22;;;;;;;86.57;34.73;;;2.70;99.90;;;;;;6101032;23;20022;-85
2022/01/16 04:04:48;;;;;;;99.90;35.87;;;2.70;99.90;;;;;;6117510;23;20024;-87
2022/01/16 04:07:22;;;;;;;102.60;36.53;;;2.70;99.90;;;;;;6131036;23;20026;-87
2022/01/16 04:09:47;;;;;;;103.53;38.90;;;2.70;99.90;;;;;;6130190;23;20014;-88
2022/01/16 04:12:13;;;;;;;98.68;37.85;;;2.70;99.90;;;;;;6105894;23;20144;-87
2022/01/16 04:17:29;;;;;;;113.88;38.38;;;2.70;99.90;;;;;;6155185;23;20025;-88
2022/01/16 04:20:16;;;;;;;99.38;36.78;;;2.80;99.90;;;;;;6129981;23;20099;-88
2022/01/16 04:22:43;;;;;;;110.60;37.58;;;2.70;99.90;;;;;;6130757;23;20025;-87
2022/01/16 04:25:09;;;;;;;105.88;37.13;;;2.80;99.90;;;;;;6130790;23;20100;-88
2022/01/16 04:27:35;;;;;;;121.93;39.53;;;2.80;99.90;;;;;;6130550;23;20060;-88
2022/01/16 04:30:00;;;;;;;112.67;39.13;;;2.80;99.90;;;;;;6130660;23;20092;-88
2022/01/16 04:32:26;;;;;;;131.43;38.70;;;2.80;99.90;;;;;;6130423;23;20009;-89
2022/01/16 04:37:33;;;;;;;131.85;39.65;;;2.80;99.90;;;;;;6098855;23;20030;-89
2022/01/16 04:40:01;;;;;;;120.93;39.57;;;2.80;99.90;;;;;;6071297;23;20396;-88
2022/01/16 04:45:12;;;;;;;129.88;40.22;;;2.80;99.90;;;;;;6072313;23;20085;-93
2022/01/16 04:47:39;;;;;;;123.72;38.10;;;2.80;99.90;;;;;;6072869;23;20029;-92
2022/01/16 04:50:05;;;;;;;127.07;39.55;;;2.80;99.90;;;;;;6068125;23;20014;-91
2022/01/16 04:52:31;;;;;;;108.20;39.50;;;2.90;99.90;;;;;;6097648;23;20022;-89
2022/01/16 04:54:56;;;;;;;123.57;40.00;;;2.90;99.90;;;;;;6097490;23;20070;-89
2022/01/16 04:57:22;;;;;;;140.23;40.67;;;2.90;99.90;;;;;;6072302;23;20021;-90
2022/01/16 04:59:48;;;;;;;103.72;38.45;;;2.90;99.90;;;;;;6072239;23;20105;-89
2022/01/16 05:02:14;;;;;;;112.57;39.03;;;2.90;99.90;;;;;;6097584;23;20025;-89
2022/01/16 05:04:39;;;;;;;125.20;38.77;;;3.00;99.90;;;;;;6072207;23;20106;-90
2022/01/16 05:07:05;;;;;;;111.17;37.83;;;3.00;99.90;;;;;;6072404;23;20459;-90
2022/01/16 05:09:31;;;;;;;120.07;38.85;;;3.00;99.90;;;;;;6072230;23;20065;-91
2022/01/16 05:11:59;;;;;;;123.80;40.80;;;3.00;99.90;;;;;;6072333;23;20356;-90
2022/01/16 05:17:09;;;;;;;128.20;39.13;;;3.10;99.90;;;;;;6072252;23;20061;-90
2022/01/16 05:19:35;;;;;;;136.80;40.93;;;3.10;99.90;;;;;;6072400;23;20014;-89
2022/01/16 05:22:00;;;;;;;118.03;39.40;;;3.10;99.90;;;;;;6072251;23;20057;-88
2022/01/16 05:24:31;;;;;;;113.73;38.60;;;3.10;99.90;;;;;;6097509;23;20014;-89
2022/01/16 05:26:57;;;;;;;124.18;39.55;;;3.10;99.90;;;;;;6097577;23;20113;-93
2022/01/16 05:29:23;;;;;;;126.63;40.53;;;3.10;99.90;;;;;;6072017;23;20452;-91
2022/01/16 05:31:48;;;;;;;137.37;43.57;;;3.10;99.90;;;;;;6073479;23;20018;-92
2022/01/16 05:34:18;;;;;;;137.50;42.40;;;3.20;99.90;;;;;;6074153;23;20022;-89
2022/01/16 05:36:44;;;;;;;132.55;40.13;;;3.20;99.90;;;;;;6073765;23;20042;-91
2022/01/16 05:39:11;;;;;;;134.23;41.97;;;3.20;99.90;;;;;;6074465;23;20018;-91
2022/01/16 05:41:36;;;;;;;161.95;43.97;;;3.20;99.90;;;;;;6074110;23;20250;-90
2022/01/16 05:44:02;;;;;;;160.50;43.80;;;3.20;99.90;;;;;;6074238;23;20022;-93
2022/01/16 05:46:28;;;;;;;127.73;39.63;;;3.20;99.90;;;;;;6074069;23;20014;-92
2022/01/16 05:48:53;;;;;;;162.60;43.50;;;3.20;99.90;;;;;;6050129;23;20030;-93
2022/01/16 05:51:19;;;;;;;135.37;40.87;;;3.20;99.90;;;;;;6073885;23;20018;-92
2022/01/16 05:53:45;;;;;;;141.87;42.00;;;3.30;99.90;;;;;;6073986;23;20116;-93
2022/01/16 05:56:12;;;;;;;150.33;43.20;;;3.30;99.90;;;;;;6074189;23;20022;-93
2022/01/16 05:58:39;;;;;;;139.23;40.70;;;3.30;99.90;;;;;;6074029;23;20011;-93
2022/01/16 06:01:05;;;;;;;;;;;3.30;99.90;;;;;;6074213;23;20097;-90
2022/01/16 06:03:30;;;;;;;165.38;40.65;;;3.30;99.90;;;;;;6050003;23;19920;-90
2022/01/16 06:05:56;;;;;;;162.73;44.67;;;3.30;99.90;;;;;;6073819;23;20117;-91
2022/01/16 06:08:22;;;;;;;191.03;45.73;;;3.30;99.90;;;;;;6073883;23;20026;-88
2022/01/16 06:10:47;;;;;;;165.37;42.27;;;3.30;99.90;;;;;;6074173;23;20019;-88
2022/01/16 06:13:13;;;;;;;161.50;43.47;;;3.30;99.90;;;;;;6100002;23;20044;-91
2022/01/16 06:15:40;;;;;;;147.60;42.80;;;3.30;99.90;;;;;;6084303;23;20018;-88
2022/01/16 06:18:06;;;;;;;177.65;44.83;;;3.30;99.90;;;;;;6082165;23;20022;-91
2022/01/16 06:20:32;;;;;;;180.45;45.47;;;3.30;99.90;;;;;;6078330;23;20026;-89
2022/01/16 06:22:59;;;;;;;160.73;43.93;;;3.30;99.90;;;;;;6088845;23;20029;-89
2022/01/16 06:25:25;;;;;;;145.13;43.13;;;3.30;99.90;;;;;;6104435;23;20018;-91
2022/01/16 06:27:51;;;;;;;166.90;45.53;;;3.30;99.90;;;;;;6100157;23;20033;-90
2022/01/16 06:30:17;;;;;;;178.50;46.83;;;3.30;99.90;;;;;;6073603;23;20038;-89
2022/01/16 06:32:43;;;;;;;176.40;46.88;;;3.30;99.90;;;;;;6073582;23;20444;-90
2022/01/16 06:35:10;;;;;;;177.97;47.70;;;3.40;99.90;;;;;;6049564;23;20029;-91
2022/01/16 06:37:36;;;;;;;167.23;45.00;;;3.40;99.90;;;;;;6098580;23;20022;-91
2022/01/16 06:40:03;;;;;;;180.67;47.17;;;3.40;99.90;;;;;;6073694;23;20536;-90
2022/01/16 06:42:29;;;;;;;175.35;47.20;;;3.40;99.90;;;;;;6098676;23;20018;-91
2022/01/16 06:44:54;;;;;;;181.70;48.10;;;3.40;99.90;;;;;;6073729;23;20021;-90
2022/01/16 06:47:20;;;;;;;172.13;45.67;;;3.50;99.90;;;;;;6073660;23;20101;-92
2022/01/16 06:49:46;;;;;;;177.20;49.13;;;3.50;99.90;;;;;;6073563;23;20022;-90
2022/01/16 06:52:12;;;;;;;175.17;46.90;;;3.50;99.90;;;;;;6073427;23;20038;-87
2022/01/16 06:54:38;;;;;;;171.98;49.88;;;3.50;99.90;;;;;;6073307;23;20026;-89
2022/01/16 06:57:04;;;;;;;192.93;51.75;;;3.50;99.90;;;;;;6073632;23;20097;-91
2022/01/16 06:59:32;;;;;;;193.33;46.23;;;3.50;99.90;;;;;;6073559;23;20026;-92
2022/01/16 07:01:58;;;;;;;178.10;47.42;;;3.60;99.90;;;;;;6073264;23;20022;-95
2022/01/16 07:04:24;;;;;;;186.48;49.63;;;3.60;99.90;;;;;;6073511;23;20030;-90
2022/01/16 07:06:50;;;;;;;169.80;48.78;;;3.60;99.90;;;;;;6073470;23;20076;-91
2022/01/16 07:09:17;;;;;;;177.07;50.47;;;3.60;99.90;;;;;;6073238;23;20413;-90
2022/01/16 07:11:43;;;;;;;179.52;48.90;;;3.70;99.90;;;;;;6098979;23;20065;-91
2022/01/16 07:14:09;;;;;;;185.70;52.35;;;3.70;99.90;;;;;;6098784;23;20019;-92
2022/01/16 07:16:34;;;;;;;168.07;49.57;;;3.70;99.90;;;;;;6073342;23;20321;-90
2022/01/16 07:19:00;;;;;;;179.03;51.43;;;3.70;99.90;;;;;;6073376;23;20102;-90
2022/01/16 07:21:26;;;;;;;182.60;53.37;;;3.80;99.90;;;;;;6073194;23;20030;-92
2022/01/16 07:23:53;;;;;;;174.87;50.07;;;3.80;99.90;;;;;;6073392;23;20022;-91
2022/01/16 07:26:19;;;;;;;168.07;51.92;;;3.80;99.90;;;;;;6073266;23;20049;-90
2022/01/16 07:28:45;;;;;;;179.77;51.30;;;3.90;99.90;;;;;;6073026;23;20101;-89
2022/01/16 07:31:11;;;;;;;179.35;51.10;;;3.90;99.90;;;;;;6073142;23;20019;-89
2022/01/16 07:33:36;;;;;;;155.67;49.60;;;3.90;99.90;;;;;;6073074;23;20014;-90
2022/01/16 07:36:04;;;;;;;168.30;52.67;;;4.00;99.90;;;;;;6072718;23;20088;-91
2022/01/16 07:38:31;;;;;;;165.23;50.75;;;4.00;99.90;;;;;;6073230;23;20074;-84
2022/01/16 07:40:56;;;;;;;146.57;50.75;;;4.10;99.90;;;;;;6048687;23;20023;-86
2022/01/16 07:43:23;;;;;;;169.57;52.57;;;4.10;99.90;;;;;;6048213;23;20337;-85
2022/01/16 07:45:49;;;;;;;170.88;53.60;;;4.10;99.90;;;;;;6072646;23;20018;-88
2022/01/16 07:48:15;;;;;;;154.90;51.47;;;4.10;99.90;;;;;;6072200;23;20015;-89
2022/01/16 07:50:40;;;;;;;157.27;52.30;;;4.20;99.90;;;;;;6048869;23;20019;-89
2022/01/16 07:53:28;;;;;;;144.90;49.27;;;4.20;99.90;;;;;;6072815;23;20015;-88
2022/01/16 07:56:18;;;;;;;136.93;49.30;;;4.20;99.90;;;;;;6072575;23;20025;-88
2022/01/16 07:58:59;;;;;;;144.32;49.03;;;4.30;99.90;;;;;;6072530;23;20278;-88
2022/01/16 08:01:25;;;;;;;134.75;48.53;;;4.30;99.90;;;;;;6072539;23;20441;-88
2022/01/16 08:03:52;;;;;;;127.25;46.85;;;4.30;99.90;;;;;;6073011;23;20404;-90
2022/01/16 08:06:18;;;;;;;125.00;48.17;;;4.40;99.90;;;;;;6048322;23;20023;-89
2022/01/16 08:08:44;;;;;;;117.10;47.37;;;4.40;99.90;;;;;;6072699;23;20030;-88
2022/01/16 08:11:09;;;;;;;131.23;47.90;;;4.40;99.90;;;;;;6072941;23;20054;-88
2022/01/16 08:13:36;;;;;;;114.50;45.93;;;4.40;99.90;;;;;;6072588;23;20025;-89
2022/01/16 08:16:06;;;;;;;115.88;45.92;;;4.40;99.90;;;;;;6048505;23;20026;-87
2022/01/16 08:18:32;;;;;;;116.40;44.63;;;4.50;99.90;;;;;;6071855;23;20022;-87
2022/01/16 08:20:58;;;;;;;102.50;44.35;;;4.50;99.90;;;;;;6072136;23;20018;-88
2022/01/16 08:23:24;;;;;;;94.27;43.67;;;4.50;99.90;;;;;;6071783;23;20011;-87
2022/01/16 08:25:51;;;;;;;95.25;42.00;;;4.50;99.90;;;;;;6071812;23;20018;-88
2022/01/16 08:28:17;;;;;;;99.45;44.42;;;4.60;99.90;;;;;;6071752;23;20019;-88
2022/01/16 08:30:43;;;;;;;95.23;42.40;;;4.60;99.90;;;;;;6071768;23;20354;-88
2022/01/16 08:33:09;;;;;;;81.85;39.95;;;4.60;99.90;;;;;;6071885;23;20023;-88
2022/01/16 08:35:35;;;;;;;86.85;41.20;;;4.60;99.90;;;;;;6071525;23;20097;-89
2022/01/16 08:38:01;;;;;;;99.10;41.60;;;4.70;99.90;;;;;;6072157;23;20054;-89
2022/01/16 08:40:26;;;;;;;91.03;40.67;;;4.70;99.90;;;;;;6060661;23;20452;-91
2022/01/16 08:42:52;;;;;;;93.93;42.17;;;4.80;99.90;;;;;;6072074;23;20017;-91
2022/01/16 08:45:18;;;;;;;78.87;40.13;;;4.80;99.90;;;;;;6096357;23;20054;-90
2022/01/16 08:47:47;;;;;;;83.67;40.10;;;4.80;99.90;;;;;;6071910;23;20018;-89
2022/01/16 08:50:15;;;;;;;90.15;40.65;;;4.90;99.90;;;;;;6072344;23;20019;-91
2022/01/16 08:52:41;;;;;;;89.13;39.95;;;4.90;99.90;;;;;;6072687;23;20018;-89
2022/01/16 08:55:08;;;;;;;77.15;37.72;;;4.90;99.90;;;;;;6072120;23;20105;-89
2022/01/16 08:57:34;;;;;;;75.25;37.40;;;4.90;99.90;;;;;;6071815;23;20018;-89
2022/01/16 09:00:00;;;;;;;79.53;37.87;;;5.00;99.90;;;;;;6047962;23;20014;-89
2022/01/16 09:02:26;;;;;;;66.85;37.08;;;5.00;99.90;;;;;;6071676;23;20018;-89
2022/01/16 09:04:51;;;;;;;69.80;38.00;;;4.90;99.90;;;;;;6071820;23;20026;-90
2022/01/16 09:07:17;;;;;;;72.47;36.57;;;5.00;99.90;;;;;;6072058;23;20010;-91
2022/01/16 09:09:43;;;;;;;69.73;35.80;;;5.00;99.90;;;;;;6072102;23;20545;-88
2022/01/16 09:12:10;;;;;;;72.43;36.30;;;5.00;99.90;;;;;;6071997;23;20018;-89
2022/01/16 09:14:35;;;;;;;74.22;38.10;;;5.10;99.90;;;;;;6072039;23;20023;-89
2022/01/16 09:17:01;;;;;;;71.70;37.03;;;5.10;99.90;;;;;;6071832;23;20014;-88
2022/01/16 09:19:29;;;;;;;73.03;36.00;;;5.10;99.90;;;;;;6072108;23;20105;-90
2022/01/16 09:21:55;;;;;;;66.38;35.50;;;5.20;99.90;;;;;;6072040;23;20403;-91
2022/01/16 09:29:25;;;;;;;65.95;37.17;;;5.20;99.90;;;;;;6128813;23;20036;-87
2022/01/16 09:31:56;;;;;;;67.50;34.20;;;5.30;99.90;;;;;;6129931;23;20017;-89
2022/01/16 09:34:22;;;;;;;63.20;34.55;;;5.30;99.90;;;;;;6129978;23;20025;-87
2022/01/16 09:36:50;;;;;;;61.53;33.93;;;5.30;99.90;;;;;;6129851;23;20020;-88
2022/01/16 09:39:24;;;;;;;63.88;34.47;;;5.30;99.90;;;;;;6129517;23;20017;-88
2022/01/16 09:42:56;;;;;;;62.00;33.65;;;5.40;99.90;;;;;;6129502;23;20379;-88
2022/01/16 10:06:17;;;;;;;58.20;33.35;;;5.60;99.90;;;;;;6155690;23;20021;-91
2022/01/16 10:08:44;;;;;;;59.28;31.73;;;5.60;99.90;;;;;;6105581;23;20029;-92
2022/01/16 10:11:23;;;;;;;61.58;32.42;;;5.70;99.90;;;;;;6105351;23;20024;-89
2022/01/16 10:14:36;;;;;;;66.07;36.35;;;5.70;99.90;;;;;;6104828;23;20018;-91
2022/01/16 10:17:44;;;;;;;77.72;43.72;;;5.70;99.90;;;;;;6105286;23;20099;-92
2022/01/16 10:20:31;;;;;;;66.25;37.67;;;5.70;99.90;;;;;;6101850;23;20375;-88
2022/01/16 10:23:00;;;;;;;69.95;35.85;;;5.70;99.90;;;;;;6106899;23;20029;-90
2022/01/16 10:25:45;;;;;;;61.85;33.92;;;5.70;99.90;;;;;;6106914;23;20029;-89
2022/01/16 10:28:25;;;;;;;67.93;36.63;;;5.80;99.90;;;;;;6106351;23;20459;-91
2022/01/16 10:30:54;;;;;;;62.97;33.35;;;5.70;99.90;;;;;;6107266;23;20013;-90
2022/01/16 10:33:22;;;;;;;66.43;34.70;;;5.80;99.90;;;;;;6106958;23;20451;-92
2022/01/16 10:35:53;;;;;;;115.65;61.65;;;5.80;99.90;;;;;;6131583;23;20049;-91
2022/01/16 10:38:26;;;;;;;86.32;48.25;;;5.90;99.90;;;;;;6106217;23;20057;-91
2022/01/16 10:40:53;;;;;;;69.35;36.63;;;5.90;99.90;;;;;;6107062;23;20088;-88
2022/01/16 11:06:37;;;;;;;60.00;31.10;;;6.20;99.90;;;;;;6156883;23;20026;-88
2022/01/16 11:09:49;;;;;;;61.00;31.37;;;6.20;99.90;;;;;;6131037;23;20080;-88
2022/01/16 11:12:18;;;;;;;62.50;29.77;;;6.30;99.90;;;;;;6100736;23;20474;-87
2022/01/16 11:14:55;;;;;;;55.25;29.33;;;6.30;99.90;;;;;;6130109;23;20024;-87
2022/01/16 11:17:38;;;;;;;54.92;29.25;;;6.30;99.90;;;;;;6130842;23;20014;-87
2022/01/16 11:20:05;;;;;;;51.20;27.67;;;6.30;99.90;;;;;;6156902;23;20111;-87
2022/01/16 11:22:45;;;;;;;54.55;29.00;;;6.40;99.90;;;;;;6130654;23;20097;-87
2022/01/16 11:25:23;;;;;;;63.38;28.05;;;6.40;99.90;;;;;;6130981;23;20018;-87
2022/01/16 11:27:49;;;;;;;52.35;27.85;;;6.40;99.90;;;;;;6130394;23;20069;-88
2022/01/16 11:30:36;;;;;;;72.72;39.78;;;6.40;99.90;;;;;;6130529;23;20089;-89
2022/01/16 11:33:11;;;;;;;57.65;29.65;;;6.40;99.90;;;;;;6151182;23;20025;-88
2022/01/16 11:35:43;;;;;;;51.77;30.47;;;6.50;99.90;;;;;;6130710;23;20022;-88
2022/01/16 11:38:16;;;;;;;59.55;27.95;;;6.50;99.90;;;;;;6130565;23;20017;-87
2022/01/16 11:40:51;;;;;;;49.40;26.55;;;6.50;99.90;;;;;;6130527;23;20466;-88
2022/01/16 11:46:08;;;;;;;72.20;32.63;;;6.50;99.90;;;;;;6092467;23;20361;-87
2022/01/16 11:49:00;;;;;;;;;;;;;;;;;;;;;
2022/01/16 12:20:26;;;;;;;34.00;16.33;;;6.70;99.90;;;;;;6130242;23;20018;-88
2022/01/16 12:22:59;;;;;;;29.35;14.55;;;6.70;99.90;;;;;;6013337;23;20461;-89
2022/01/16 12:25:36;;;;;;;31.65;14.60;;;6.70;99.90;;;;;;6129092;23;20024;-90
2022/01/16 12:28:43;;;;;;;29.67;14.52;;;6.70;99.90;;;;;;6129997;23;20018;-88
2022/01/16 12:31:10;;;;;;;25.98;12.82;;;6.80;99.90;;;;;;6154474;23;20021;-88
2022/01/16 12:34:01;;;;;;;;;;;;;;;;;;;;;
2022/01/16 12:39:15;;;;;;;30.20;14.68;;;6.80;99.90;;;;;;6126109;23;20022;-87
2022/01/16 12:42:01;;;;;;;25.40;12.50;;;6.80;99.90;;;;;;6100176;23;20032;-87
2022/01/16 13:00:11;;;;;;;18.88;9.05;;;6.80;99.90;;;;;;6150474;23;20021;-89
2022/01/16 13:02:43;;;;;;;;;;;6.80;99.90;;;;;;6133106;23;20021;-88
2022/01/16 13:05:11;;;;;;;20.50;9.13;;;6.80;99.90;;;;;;6133645;23;20396;-88
2022/01/16 13:31:11;;;;;;;18.77;8.10;;;6.80;99.90;;;;;;6156531;23;20025;-87
2022/01/16 13:39:32;;;;;;;21.45;8.43;;;6.80;99.90;;;;;;6126108;23;20097;-87
2022/01/16 13:42:17;;;;;;;19.60;8.98;;;6.80;99.90;;;;;;6076266;23;20352;-87
2022/01/16 13:44:43;;;;;;;19.75;8.45;;;6.80;99.90;;;;;;6100361;23;20044;-88
2022/01/16 13:47:09;;;;;;;16.67;8.35;;;6.80;99.90;;;;;;6076254;23;20021;-86
2022/01/16 15:36:29;;;;;;;;;;;;;;;;;;;;;
2022/01/16 15:43:25;;;;;;;31.05;14.45;;;6.70;99.90;;;;;;6057140;23;20482;-87
2022/01/16 16:06:34;;;;;;;30.17;15.07;;;6.50;99.90;;;;;;6184905;23;20031;-89
2022/01/16 16:09:00;;;;;;;32.13;14.40;;;6.50;99.90;;;;;;6134897;23;20017;-89
2022/01/16 16:16:42;;;;;;;36.28;19.02;;;6.50;99.90;;;;;;6187255;23;20021;-89
2022/01/16 16:19:21;;;;;;;27.25;15.43;;;6.50;99.90;;;;;;6142095;23;20052;-88
2022/01/16 16:21:50;;;;;;;34.75;15.35;;;6.60;99.90;;;;;;6141862;23;20024;-89
2022/01/16 16:24:41;;;;;;;28.65;14.20;;;6.50;99.90;;;;;;6140375;23;20019;-88
2022/01/16 16:27:16;;;;;;;29.35;15.48;;;6.60;99.90;;;;;;6132242;23;20059;-87
2022/01/16 16:29:45;;;;;;;32.55;15.77;;;6.50;99.90;;;;;;6159772;23;20017;-87
2022/01/16 16:32:11;;;;;;;34.38;15.18;;;6.60;99.90;;;;;;6135188;23;20024;-88
2022/01/16 16:34:40;;;;;;;33.88;15.70;;;6.50;99.90;;;;;;6134669;23;20104;-88
2022/01/16 16:37:06;;;;;;;30.80;13.77;;;6.50;99.90;;;;;;6135059;23;20308;-87
2022/01/16 16:39:31;;;;;;;26.37;14.37;;;6.50;99.90;;;;;;6158388;23;20028;-91
2022/01/16 16:41:57;;;;;;;32.53;14.60;;;6.60;99.90;;;;;;6134467;23;20020;-93
2022/01/16 16:44:26;;;;;;;30.50;15.00;;;6.60;99.90;;;;;;6135257;23;20023;-93
2022/01/16 16:46:55;;;;;;;30.92;14.93;;;6.60;99.90;;;;;;6159779;23;20009;-89
2022/01/16 16:49:21;;;;;;;28.70;13.82;;;6.60;99.90;;;;;;6135462;23;20387;-90
2022/01/16 16:51:47;;;;;;;38.85;15.45;;;6.60;99.90;;;;;;6134402;23;20019;-88
2022/01/16 16:54:13;;;;;;;38.30;16.57;;;6.60;99.90;;;;;;6159701;23;20017;-91
2022/01/16 16:56:39;;;;;;;35.95;15.98;;;6.60;99.90;;;;;;6135428;23;20055;-86
2022/01/16 16:59:05;;;;;;;32.40;14.97;;;6.60;99.90;;;;;;6159594;23;20053;-92
2022/01/16 17:01:34;;;;;;;41.03;17.07;;;6.60;99.90;;;;;;6134937;23;20327;-92
2022/01/16 17:04:00;;;;;;;32.63;14.65;;;6.60;99.90;;;;;;6135022;23;20016;-90
2022/01/16 17:06:31;;;;;;;32.60;15.07;;;6.70;99.90;;;;;;6159832;23;20094;-91
2022/01/16 17:08:57;;;;;;;35.92;15.40;;;6.70;99.90;;;;;;6134824;23;20024;-91
2022/01/16 17:11:23;;;;;;;30.60;14.40;;;6.70;99.90;;;;;;6135360;23;20044;-90
2022/01/16 17:14:05;;;;;;;30.50;15.00;;;6.70;99.90;;;;;;6135150;23;20152;-90
2022/01/16 17:16:31;;;;;;;37.08;15.30;;;6.70;99.90;;;;;;6134435;23;20049;-89
2022/01/16 17:19:14;;;;;;;35.87;15.47;;;6.70;99.90;;;;;;6135183;23;20028;-89
2022/01/16 17:21:48;;;;;;;26.63;14.45;;;6.70;99.90;;;;;;6134969;23;20024;-91
2022/01/16 17:24:19;;;;;;;38.65;14.90;;;6.70;99.90;;;;;;6134899;23;20049;-88
2022/01/16 17:26:44;;;;;;;36.75;14.43;;;6.70;99.90;;;;;;6134973;23;20043;-91
2022/01/16 17:29:10;;;;;;;37.33;14.73;;;6.70;99.90;;;;;;6135246;23;20017;-89
2022/01/16 17:31:36;;;;;;;37.93;15.67;;;6.70;99.90;;;;;;6135635;23;20021;-92
2022/01/16 17:34:02;;;;;;;36.67;15.97;;;6.70;99.90;;;;;;6136692;23;20024;-90
2022/01/16 17:36:27;;;;;;;38.83;16.10;;;6.70;99.90;;;;;;6162337;23;21609;-90
2022/01/16 17:38:53;;;;;;;46.27;16.10;;;6.70;99.90;;;;;;6137392;23;20020;-91
2022/01/16 17:41:19;;;;;;;37.60;14.38;;;6.70;99.90;;;;;;6137364;23;20044;-91
2022/01/16 17:43:48;;;;;;;40.93;15.43;;;6.70;99.90;;;;;;6137161;23;20132;-90
2022/01/16 17:46:14;;;;;;;40.05;16.50;;;6.70;99.90;;;;;;6137271;23;20040;-92
2022/01/16 17:48:40;;;;;;;51.90;23.40;;;6.70;99.90;;;;;;6137837;23;20017;-95
2022/01/16 17:51:06;;;;;;;36.10;16.00;;;6.70;99.90;;;;;;6136497;23;20100;-91
2022/01/16 17:53:31;;;;;;;37.00;13.60;;;6.70;99.90;;;;;;6137435;23;20013;-90
2022/01/16 17:55:57;;;;;;;36.00;13.83;;;6.70;99.90;;;;;;6137316;23;20021;-91
2022/01/16 17:58:23;;;;;;;33.27;12.77;;;6.70;99.90;;;;;;6136859;23;20013;-89
2022/01/16 18:00:53;;;;;;;41.63;13.93;;;6.70;99.90;;;;;;6137157;23;20021;-91
2022/01/16 18:03:19;;;;;;;44.38;15.57;;;6.70;99.90;;;;;;6137025;23;20009;-90
2022/01/16 18:05:44;;;;;;;40.67;13.73;;;6.70;99.90;;;;;;6137087;23;20354;-93